createdAt,value
2022-08-04T00:01:36.810Z,96866.19
2022-08-04T00:04:08.591Z,96863.41
2022-08-04T00:06:47.370Z,96866.72
2022-08-04T00:09:22.255Z,96868.91
2022-08-04T00:11:52.813Z,96863.59
2022-08-04T00:14:22.038Z,96871.00
2022-08-04T00:16:50.388Z,96869.56
2022-08-04T00:19:29.347Z,96867.78
2022-08-04T00:22:04.147Z,96869.53
2022-08-04T00:24:31.616Z,96869.69
2022-08-04T00:26:58.723Z,96870.94
2022-08-04T00:29:25.453Z,96874.78
2022-08-04T00:31:54.653Z,96877.63
2022-08-04T00:34:26.988Z,96873.06
2022-08-04T00:36:55.538Z,96877.84
2022-08-04T00:39:22.879Z,96875.78
2022-08-04T00:42:23.863Z,96879.53
2022-08-04T00:45:16.273Z,96878.09
2022-08-04T00:48:04.578Z,96885.50
2022-08-04T00:50:55.227Z,96888.78
2022-08-04T00:53:24.774Z,96882.84
2022-08-04T00:56:25.271Z,96893.53
2022-08-04T00:59:21.747Z,96897.59
2022-08-04T01:01:54.619Z,96890.19
2022-08-04T01:04:41.164Z,96889.69
2022-08-04T01:07:44.756Z,96881.47
2022-08-04T01:10:30.593Z,96896.34
2022-08-04T01:13:15.021Z,96899.94
2022-08-04T01:16:05.375Z,96890.91
2022-08-04T01:18:50.344Z,96885.84
2022-08-04T01:21:31.537Z,96881.41
2022-08-04T01:24:03.831Z,96883.63
2022-08-04T01:27:06.857Z,96885.16
2022-08-04T01:29:47.261Z,96891.75
2022-08-04T01:32:35.651Z,96888.41
2022-08-04T01:35:46.264Z,96887.25
2022-08-04T01:38:37.054Z,96888.28
2022-08-04T01:41:06.708Z,96884.84
2022-08-04T01:43:36.255Z,96883.88
2022-08-04T01:46:05.478Z,96876.31
2022-08-04T01:48:36.621Z,96887.00
2022-08-04T01:51:06.169Z,96890.09
2022-08-04T01:53:37.885Z,96889.31
2022-08-04T01:56:06.749Z,96879.09
2022-08-04T01:58:36.177Z,96878.50
2022-08-04T02:01:11.425Z,96884.28
2022-08-04T02:04:20.973Z,96885.78
2022-08-04T02:07:02.591Z,96891.69
2022-08-04T02:09:54.185Z,96887.28
2022-08-04T02:12:31.354Z,96887.53
2022-08-04T02:15:07.547Z,96891.03
2022-08-04T02:17:52.487Z,96884.63
2022-08-04T02:20:33.578Z,96879.78
2022-08-04T02:23:03.423Z,96879.66
2022-08-04T02:25:39.512Z,96877.66
2022-08-04T02:28:15.139Z,96882.63
2022-08-04T02:30:44.934Z,96878.44
2022-08-04T02:33:16.899Z,96877.66
2022-08-04T02:35:47.055Z,96871.59
2022-08-04T02:38:48.026Z,96881.69
2022-08-04T02:41:16.911Z,96876.81
2022-08-04T02:43:51.040Z,96879.34
2022-08-04T02:46:20.751Z,96886.47
2022-08-04T02:48:49.042Z,96884.44
2022-08-04T02:51:21.703Z,96880.47
2022-08-04T02:53:53.045Z,96874.31
2022-08-04T02:56:20.447Z,96876.03
2022-08-04T02:58:52.923Z,96873.56
2022-08-04T03:01:23.171Z,96878.50
2022-08-04T03:04:24.173Z,96873.31
2022-08-04T03:07:03.582Z,96877.84
2022-08-04T03:09:48.675Z,96871.44
2022-08-04T03:12:58.937Z,96889.34
2022-08-04T03:15:59.847Z,96877.53
2022-08-04T03:19:03.693Z,96877.16
2022-08-04T03:22:05.519Z,96872.31
2022-08-04T03:24:47.415Z,96881.84
2022-08-04T03:27:38.037Z,96879.31
2022-08-04T03:30:18.686Z,96879.75
2022-08-04T03:33:09.410Z,96878.13
2022-08-04T03:36:13.666Z,96889.31
2022-08-04T03:38:40.175Z,96885.97
2022-08-04T03:41:55.002Z,96886.13
2022-08-04T03:44:52.343Z,96881.91
2022-08-04T03:48:09.778Z,96886.03
2022-08-04T03:50:41.424Z,96884.78
2022-08-04T03:53:46.905Z,96887.72
2022-08-04T03:56:34.706Z,96885.53
2022-08-04T03:59:24.427Z,96884.56
2022-08-04T04:02:02.247Z,96884.06
2022-08-04T04:04:45.411Z,96888.78
2022-08-04T04:07:36.084Z,96884.50
2022-08-04T04:10:37.558Z,96880.28
2022-08-04T04:13:25.774Z,96881.03
2022-08-04T04:15:52.287Z,96875.84
2022-08-04T04:18:38.683Z,96876.97
2022-08-04T04:21:20.416Z,96880.66
2022-08-04T04:23:49.631Z,96880.81
2022-08-04T04:26:25.226Z,96867.50
2022-08-04T04:29:16.085Z,96876.38
2022-08-04T04:31:48.842Z,96876.16
2022-08-04T04:34:50.139Z,96885.00
2022-08-04T04:37:47.831Z,96884.34
2022-08-04T04:40:40.575Z,96885.91
2022-08-04T04:43:22.099Z,96895.13
2022-08-04T04:46:43.478Z,96895.41
2022-08-04T04:49:32.043Z,96895.69
2022-08-04T04:52:09.834Z,96885.84
2022-08-04T04:54:51.477Z,96896.00
2022-08-04T04:57:20.074Z,96887.41
2022-08-04T05:00:09.487Z,96882.69
2022-08-04T05:03:07.262Z,96880.50
2022-08-04T05:05:47.543Z,96878.94
2022-08-04T05:08:43.440Z,96887.22
2022-08-04T05:11:21.940Z,96889.63
2022-08-04T05:14:36.037Z,96884.91
2022-08-04T05:16:47.740Z,96880.13
2022-08-04T05:19:26.363Z,96876.88
2022-08-04T05:22:18.618Z,96878.22
2022-08-04T05:24:47.917Z,96872.13
2022-08-04T05:27:28.561Z,96878.66
2022-08-04T05:29:59.401Z,96869.28
2022-08-04T05:32:37.465Z,96870.41
2022-08-04T05:35:09.707Z,96868.19
2022-08-04T05:37:40.438Z,96867.63
2022-08-04T05:40:09.260Z,96863.16
2022-08-04T05:42:39.079Z,96859.56
2022-08-04T05:45:08.045Z,96868.13
2022-08-04T05:47:35.285Z,96867.56
2022-08-04T05:50:06.635Z,96866.03
2022-08-04T05:52:34.705Z,96863.56
2022-08-04T05:55:02.736Z,96856.44
2022-08-04T05:57:30.492Z,96857.84
2022-08-04T06:00:00.272Z,96863.03
2022-08-04T06:02:28.475Z,96862.13
2022-08-04T06:04:56.478Z,96859.75
2022-08-04T06:07:23.679Z,96868.03
2022-08-04T06:09:50.368Z,96868.91
2022-08-04T06:12:25.254Z,96876.34
2022-08-04T06:14:59.399Z,96866.25
2022-08-04T06:18:32.834Z,96866.16
2022-08-04T06:20:23.204Z,96864.53
2022-08-04T06:22:55.587Z,96856.00
2022-08-04T06:25:34.278Z,96857.31
2022-08-04T06:28:05.521Z,96843.66
2022-08-04T06:30:33.234Z,96857.13
2022-08-04T06:33:05.210Z,96857.94
2022-08-04T06:35:33.797Z,96857.66
2022-08-04T06:38:03.112Z,96858.66
2022-08-04T06:40:33.857Z,96859.25
2022-08-04T06:43:07.291Z,96855.38
2022-08-04T06:45:38.173Z,96858.81
2022-08-04T06:48:06.559Z,96848.38
2022-08-04T06:51:32.678Z,96846.44
2022-08-04T06:53:23.039Z,96850.84
2022-08-04T06:55:50.878Z,96855.31
2022-08-04T06:58:20.261Z,96850.56
2022-08-04T07:00:48.489Z,96850.84
2022-08-04T07:03:18.168Z,96854.13
2022-08-04T07:05:47.406Z,96846.94
2022-08-04T07:08:14.546Z,96843.97
2022-08-04T07:10:41.452Z,96846.69
2022-08-04T07:13:10.641Z,96846.97
2022-08-04T07:15:41.342Z,96841.28
2022-08-04T07:18:08.118Z,96846.13
2022-08-04T07:20:36.765Z,96843.19
2022-08-04T07:23:05.783Z,96835.00
2022-08-04T07:26:00.574Z,96840.78
2022-08-04T07:28:23.648Z,96833.94
2022-08-04T07:30:50.662Z,96830.06
2022-08-04T07:33:18.427Z,96829.56
2022-08-04T07:36:05.027Z,96823.81
2022-08-04T07:38:37.538Z,96834.09
2022-08-04T07:41:35.340Z,96831.81
2022-08-04T07:43:54.863Z,96847.34
2022-08-04T07:46:21.797Z,96843.69
2022-08-04T07:48:48.740Z,96833.22
2022-08-04T07:51:16.980Z,96828.66
2022-08-04T07:53:54.186Z,96828.06
2022-08-04T07:56:23.071Z,96822.25
2022-08-04T07:58:50.434Z,96827.09
2022-08-04T08:01:17.563Z,96821.03
2022-08-04T08:03:44.516Z,96817.13
2022-08-04T08:06:17.219Z,96820.84
2022-08-04T08:09:12.709Z,96819.44
2022-08-04T08:12:35.301Z,96812.72
2022-08-04T08:14:35.605Z,96819.25
2022-08-04T08:17:03.348Z,96819.91
2022-08-04T08:19:31.732Z,96809.88
2022-08-04T08:22:00.832Z,96814.28
2022-08-04T08:24:35.369Z,96812.22
2022-08-04T08:27:04.886Z,96803.81
2022-08-04T08:29:33.719Z,96800.41
2022-08-04T08:32:07.250Z,96809.47
2022-08-04T08:34:35.371Z,96799.97
2022-08-04T08:37:28.209Z,96796.56
2022-08-04T08:40:04.214Z,96797.97
2022-08-04T08:42:49.281Z,96805.00
2022-08-04T08:45:17.750Z,96799.94
2022-08-04T08:48:33.576Z,96799.72
2022-08-04T08:51:31.652Z,96799.50
2022-08-04T08:54:04.035Z,96794.72
2022-08-04T08:56:54.043Z,96802.00
2022-08-04T08:59:38.490Z,96807.44
2022-08-04T09:02:32.751Z,96801.41
2022-08-04T09:05:18.463Z,96797.28
2022-08-04T09:08:06.061Z,96809.84
2022-08-04T09:10:45.291Z,96797.91
2022-08-04T09:13:21.358Z,96791.16
2022-08-04T09:16:02.577Z,96790.81
2022-08-04T09:18:38.690Z,96790.25
2022-08-04T09:21:22.979Z,96795.94
2022-08-04T09:24:36.610Z,96792.50
2022-08-04T09:27:01.818Z,96791.13
2022-08-04T09:29:37.623Z,96787.78
2022-08-04T09:32:35.303Z,96783.66
2022-08-04T09:35:34.768Z,96782.53
2022-08-04T09:38:20.989Z,96790.63
2022-08-04T09:40:57.341Z,96790.28
2022-08-04T09:43:28.094Z,96781.94
2022-08-04T09:46:26.311Z,96773.97
2022-08-04T09:49:11.511Z,96782.03
2022-08-04T09:52:16.997Z,96771.25
2022-08-04T09:54:53.292Z,96773.25
2022-08-04T09:57:41.687Z,96777.41
2022-08-04T10:00:10.769Z,96768.66
2022-08-04T10:02:42.738Z,96762.25
2022-08-04T10:05:18.692Z,96760.81
2022-08-04T10:08:17.206Z,96761.47
2022-08-04T10:11:21.601Z,96759.25
2022-08-04T10:13:54.470Z,96760.91
2022-08-04T10:16:29.964Z,96751.84
2022-08-04T10:19:11.792Z,96758.84
2022-08-04T10:22:29.018Z,96751.75
2022-08-04T10:26:03.262Z,96746.78
2022-08-04T10:28:15.529Z,96750.06
2022-08-04T10:30:50.028Z,96747.53
2022-08-04T10:33:30.989Z,96744.91
2022-08-04T10:36:03.191Z,96742.56
2022-08-04T10:38:40.866Z,96744.41
2022-08-04T10:41:35.139Z,96740.50
2022-08-04T10:44:12.610Z,96734.63
2022-08-04T10:46:47.374Z,96725.84
2022-08-04T10:49:25.049Z,96734.69
2022-08-04T10:51:59.991Z,96728.03
2022-08-04T10:54:33.308Z,96730.34
2022-08-04T10:57:07.695Z,96734.28
2022-08-04T10:59:58.041Z,96727.06
2022-08-04T11:02:51.445Z,96735.78
2022-08-04T11:05:46.546Z,96718.72
2022-08-04T11:08:21.945Z,96723.88
2022-08-04T11:10:58.267Z,96716.19
2022-08-04T11:13:30.349Z,96721.97
2022-08-04T11:16:02.581Z,96718.97
2022-08-04T11:18:50.259Z,96727.41
2022-08-04T11:21:23.509Z,96716.31
2022-08-04T11:24:03.212Z,96712.44
2022-08-04T11:26:45.983Z,96710.22
2022-08-04T11:29:25.959Z,96713.16
2022-08-04T11:31:56.654Z,96707.47
2022-08-04T11:34:26.431Z,96707.28
2022-08-04T11:37:17.967Z,96704.97
2022-08-04T11:40:32.539Z,96705.22
2022-08-04T11:43:08.811Z,96703.31
2022-08-04T11:45:45.673Z,96707.53
2022-08-04T11:48:31.071Z,96704.78
2022-08-04T11:51:02.405Z,96701.41
2022-08-04T11:53:37.435Z,96693.50
2022-08-04T11:56:11.251Z,96706.97
2022-08-04T11:58:39.339Z,96696.44
2022-08-04T12:01:20.034Z,96685.41
2022-08-04T12:04:04.780Z,96694.66
2022-08-04T12:07:04.595Z,96695.19
2022-08-04T12:09:53.070Z,96684.91
2022-08-04T12:12:29.817Z,96687.13
2022-08-04T12:15:26.574Z,96688.28
2022-08-04T12:18:22.857Z,96670.13
2022-08-04T12:20:59.060Z,96682.41
2022-08-04T12:23:32.714Z,96685.16
2022-08-04T12:26:06.078Z,96684.06
2022-08-04T12:29:07.289Z,96680.41
2022-08-04T12:31:41.822Z,96675.56
2022-08-04T12:34:14.842Z,96681.03
2022-08-04T12:36:56.491Z,96679.63
2022-08-04T12:39:25.833Z,96679.28
2022-08-04T12:42:21.159Z,96676.75
2022-08-04T12:44:54.122Z,96670.44
2022-08-04T12:47:29.063Z,96671.75
2022-08-04T12:50:02.382Z,96661.88
2022-08-04T12:55:31.697Z,96662.31
2022-08-04T12:58:00.230Z,96663.38
2022-08-04T13:00:36.722Z,96655.44
2022-08-04T13:03:14.545Z,96660.91
2022-08-04T13:05:42.951Z,96649.69
2022-08-04T13:08:13.803Z,96646.81
2022-08-04T13:10:45.623Z,96649.59
2022-08-04T13:13:16.993Z,96643.38
2022-08-04T13:15:56.666Z,96643.97
2022-08-04T13:18:30.028Z,96635.28
2022-08-04T13:21:50.415Z,96634.91
2022-08-04T13:24:22.819Z,96631.41
2022-08-04T13:27:03.738Z,96626.69
2022-08-04T13:30:24.520Z,96628.00
2022-08-04T13:32:30.080Z,96623.28
2022-08-04T13:35:00.063Z,96618.75
2022-08-04T13:37:38.960Z,96613.88
2022-08-04T13:40:09.120Z,96618.84
2022-08-04T13:42:37.482Z,96612.22
2022-08-04T13:45:07.431Z,96613.59
2022-08-04T13:47:38.320Z,96611.38
2022-08-04T13:50:16.466Z,96615.50
2022-08-04T13:52:45.187Z,96611.06
2022-08-04T13:55:26.205Z,96608.28
2022-08-04T13:58:04.216Z,96608.94
2022-08-04T14:00:44.664Z,96607.81
2022-08-04T14:03:23.612Z,96602.63
2022-08-04T14:06:13.521Z,96609.22
2022-08-04T14:08:50.498Z,96597.50
2022-08-04T14:12:06.631Z,96599.25
2022-08-04T14:14:27.651Z,96603.56
2022-08-04T14:17:03.290Z,96607.44
2022-08-04T14:19:48.793Z,96596.44
2022-08-04T14:22:27.751Z,96587.88
2022-08-04T14:24:59.630Z,96586.91
2022-08-04T14:27:28.925Z,96584.28
2022-08-04T14:29:55.579Z,96578.84
2022-08-04T14:32:26.250Z,96578.31
2022-08-04T14:34:53.275Z,96584.06
2022-08-04T14:37:22.597Z,96578.28
2022-08-04T14:40:18.402Z,96574.16
2022-08-04T14:42:43.804Z,96572.09
2022-08-04T14:45:10.787Z,96582.06
2022-08-04T14:47:52.596Z,96576.41
2022-08-04T14:50:20.585Z,96572.69
2022-08-04T14:52:47.274Z,96572.94
2022-08-04T14:55:19.790Z,96573.50
2022-08-04T14:58:34.169Z,96583.81
2022-08-04T15:00:36.694Z,96569.84
2022-08-04T15:03:08.730Z,96580.31
2022-08-04T15:06:00.182Z,96581.06
2022-08-04T15:08:23.844Z,96573.81
2022-08-04T15:10:58.989Z,96569.16
2022-08-04T15:13:30.266Z,96561.13
2022-08-04T15:16:07.018Z,96558.28
2022-08-04T15:18:37.192Z,96561.78
2022-08-04T15:21:05.252Z,96555.41
2022-08-04T15:23:38.619Z,96566.75
2022-08-04T15:26:08.698Z,96562.78
2022-08-04T15:28:38.403Z,96562.78
2022-08-04T15:31:10.620Z,96560.25
2022-08-04T15:33:56.849Z,96561.56
2022-08-04T15:36:43.722Z,96561.03
2022-08-04T15:39:19.079Z,96552.19
2022-08-04T15:42:23.107Z,96555.56
2022-08-04T15:44:55.778Z,96552.66
2022-08-04T15:47:25.598Z,96556.69
2022-08-04T15:50:06.420Z,96559.00
2022-08-04T15:53:10.001Z,96549.38
2022-08-04T15:55:39.518Z,96551.50
2022-08-04T15:58:09.646Z,96543.38
2022-08-04T16:00:59.480Z,96543.66
2022-08-04T16:03:58.892Z,96543.84
2022-08-04T16:06:22.296Z,96538.09
2022-08-04T16:08:57.293Z,96543.09
2022-08-04T16:11:32.589Z,96539.94
2022-08-04T16:13:59.821Z,96539.94
2022-08-04T16:16:31.766Z,96540.13
2022-08-04T16:19:35.499Z,96545.63
2022-08-04T16:22:04.481Z,96540.56
2022-08-04T16:24:37.878Z,96536.75
2022-08-04T16:27:09.742Z,96539.00
2022-08-04T16:29:40.695Z,96537.38
2022-08-04T16:32:15.503Z,96541.63
2022-08-04T16:34:55.991Z,96537.47
2022-08-04T16:37:29.163Z,96543.22
2022-08-04T16:40:33.773Z,96542.63
2022-08-04T16:43:06.252Z,96538.59
2022-08-04T16:45:54.281Z,96534.06
2022-08-04T16:48:29.434Z,96544.41
2022-08-04T16:51:04.750Z,96544.19
2022-08-04T16:53:58.713Z,96543.41
2022-08-04T16:56:33.023Z,96534.75
2022-08-04T16:59:07.334Z,96541.06
2022-08-04T17:01:34.722Z,96536.28
2022-08-04T17:04:07.017Z,96531.09
2022-08-04T17:06:39.608Z,96530.94
2022-08-04T17:09:10.750Z,96531.94
2022-08-04T17:11:37.446Z,96529.09
2022-08-04T17:14:06.132Z,96530.00
2022-08-04T17:16:35.256Z,96529.59
2022-08-04T17:19:02.527Z,96531.69
2022-08-04T17:21:31.564Z,96524.72
2022-08-04T17:24:15.528Z,96524.31
2022-08-04T17:26:53.614Z,96521.84
2022-08-04T17:29:22.644Z,96520.06
2022-08-04T17:32:13.805Z,96513.47
2022-08-04T17:34:40.542Z,96515.53
2022-08-04T17:37:36.776Z,96520.50
2022-08-04T17:40:06.823Z,96529.34
2022-08-04T17:42:39.242Z,96524.75
2022-08-04T17:48:03.078Z,96525.53
2022-08-04T17:50:35.739Z,96525.00
2022-08-04T17:53:11.965Z,96524.50
2022-08-04T17:55:44.585Z,96521.00
2022-08-04T17:58:23.145Z,96529.25
2022-08-04T18:01:22.534Z,96523.59
2022-08-04T18:03:53.303Z,96529.06
2022-08-04T18:06:21.992Z,96521.28
2022-08-04T18:08:57.431Z,96518.50
2022-08-04T18:11:29.515Z,96524.44
2022-08-04T18:14:08.008Z,96527.41
2022-08-04T18:16:43.820Z,96527.75
2022-08-04T18:19:18.882Z,96527.59
2022-08-04T18:21:59.335Z,96524.91
2022-08-04T18:24:35.404Z,96521.56
2022-08-04T18:27:20.390Z,96536.94
2022-08-04T18:30:15.390Z,96529.25
2022-08-04T18:32:34.267Z,96527.13
2022-08-04T18:40:52.851Z,96536.19
2022-08-04T18:43:28.775Z,96546.88
2022-08-04T18:45:58.019Z,96544.47
2022-08-04T18:48:36.827Z,96552.47
2022-08-04T18:51:11.064Z,96550.09
2022-08-04T18:53:55.542Z,96547.75
2022-08-04T18:56:32.475Z,96550.25
2022-08-04T18:59:01.942Z,96554.47
2022-08-04T19:02:13.065Z,96546.84
2022-08-04T19:04:34.085Z,96546.38
2022-08-04T19:09:53.887Z,96545.91
2022-08-04T19:12:26.601Z,96553.84
2022-08-04T19:14:58.857Z,96550.66
2022-08-04T19:17:53.489Z,96551.78
2022-08-04T19:20:25.700Z,96561.41
2022-08-04T19:24:10.928Z,96563.66
2022-08-04T19:26:03.815Z,96565.66
2022-08-04T19:28:34.103Z,96568.03
2022-08-04T19:31:01.385Z,96565.25
2022-08-04T19:33:30.139Z,96573.25
2022-08-04T19:36:17.337Z,96573.47
2022-08-04T19:38:44.715Z,96573.28
2022-08-04T19:41:14.837Z,96568.56
2022-08-04T19:43:43.735Z,96583.25
2022-08-04T19:46:11.317Z,96577.19
2022-08-04T19:48:39.234Z,96583.44
2022-08-04T19:51:05.911Z,96583.81
2022-08-04T19:53:36.858Z,96591.91
2022-08-04T19:56:04.703Z,96598.03
2022-08-04T19:58:31.318Z,96594.38
2022-08-04T20:00:57.965Z,96597.88
2022-08-04T20:04:10.152Z,96598.41
2022-08-04T20:06:11.832Z,96598.78
2022-08-04T20:08:38.786Z,96598.78
2022-08-04T20:11:15.980Z,96597.38
2022-08-04T20:13:43.268Z,96600.81
2022-08-04T20:16:28.845Z,96588.25
2022-08-04T20:19:00.990Z,96603.78
2022-08-04T20:21:36.560Z,96595.53
2022-08-04T20:24:38.614Z,96603.28
2022-08-04T20:27:07.730Z,96601.50
2022-08-04T20:29:40.803Z,96599.34
2022-08-04T20:32:10.359Z,96607.41
2022-08-04T20:37:54.773Z,96606.88
2022-08-04T20:40:13.615Z,96600.88
2022-08-04T20:42:41.482Z,96604.59
2022-08-04T20:45:16.104Z,96608.50
2022-08-04T20:47:46.007Z,96598.53
2022-08-04T20:50:29.822Z,96608.41
2022-08-04T20:52:57.532Z,96607.06
2022-08-04T20:55:25.391Z,96604.69
2022-08-04T20:58:00.865Z,96608.72
2022-08-04T21:00:30.460Z,96607.63
2022-08-04T21:03:00.730Z,96612.03
2022-08-04T21:05:28.206Z,96610.13
2022-08-04T21:07:57.185Z,96604.25
2022-08-04T21:10:27.640Z,96605.41
2022-08-04T21:12:55.034Z,96608.84
2022-08-04T21:15:26.264Z,96616.38
2022-08-04T21:18:13.642Z,96624.00
2022-08-04T21:20:43.083Z,96617.03
2022-08-04T21:23:10.059Z,96617.59
2022-08-04T21:28:23.371Z,96623.88
2022-08-04T21:30:54.972Z,96616.63
2022-08-04T21:33:28.136Z,96624.50
2022-08-04T21:36:11.860Z,96626.09
2022-08-04T21:38:39.194Z,96628.50
2022-08-04T21:41:08.798Z,96621.50
2022-08-04T21:43:43.151Z,96628.25
2022-08-04T21:46:10.236Z,96616.44
2022-08-04T21:48:38.291Z,96623.19
2022-08-04T21:51:56.790Z,96622.38
2022-08-04T21:54:07.955Z,96626.41
2022-08-04T21:56:35.267Z,96619.97
2022-08-04T21:59:07.143Z,96626.41
2022-08-04T22:01:50.454Z,96626.41
2022-08-04T22:04:19.563Z,96632.28
2022-08-04T22:06:47.691Z,96631.22
2022-08-04T22:09:18.941Z,96636.59
2022-08-04T22:11:50.635Z,96634.72
2022-08-04T22:14:27.278Z,96636.81
2022-08-04T22:16:56.769Z,96630.94
2022-08-04T22:19:39.952Z,96636.03
2022-08-04T22:22:13.626Z,96639.50
2022-08-04T22:24:53.135Z,96637.03
2022-08-04T22:27:38.294Z,96633.81
2022-08-04T22:30:10.520Z,96641.78
2022-08-04T22:32:43.656Z,96643.44
2022-08-04T22:35:42.908Z,96639.94
2022-08-04T22:38:07.726Z,96639.09
2022-08-04T22:40:38.394Z,96631.38
2022-08-04T22:43:32.602Z,96645.50
2022-08-04T22:45:51.733Z,96646.03
2022-08-04T22:48:18.492Z,96636.84
2022-08-04T22:50:45.115Z,96637.94
2022-08-04T22:53:11.702Z,96641.13
2022-08-04T22:56:06.695Z,96639.47
2022-08-04T22:58:31.739Z,96637.84
2022-08-04T23:00:58.709Z,96631.84
2022-08-04T23:03:37.140Z,96639.31
2022-08-04T23:06:07.171Z,96635.03
2022-08-04T23:08:38.745Z,96631.25
2022-08-04T23:11:09.930Z,96636.59
2022-08-04T23:13:37.289Z,96636.53
2022-08-04T23:16:06.510Z,96635.38
2022-08-04T23:18:37.058Z,96634.16
2022-08-04T23:21:09.849Z,96635.19
2022-08-04T23:23:38.066Z,96630.94
2022-08-04T23:26:14.347Z,96628.25
2022-08-04T23:28:41.914Z,96630.88
2022-08-04T23:31:10.134Z,96627.56
2022-08-04T23:33:51.556Z,96628.44
2022-08-04T23:36:29.517Z,96628.69
2022-08-04T23:39:04.121Z,96619.59
2022-08-04T23:41:54.269Z,96619.94
2022-08-04T23:44:24.665Z,96625.28
2022-08-04T23:46:59.616Z,96620.69
2022-08-04T23:49:44.108Z,96619.06
2022-08-04T23:52:28.193Z,96618.44
2022-08-04T23:55:00.367Z,96624.31
2022-08-04T23:57:31.164Z,96621.06
